createdAt,value
2018-09-20T00:00:56.719Z,101142.81
2018-09-20T00:04:00.924Z,101144.20
2018-09-20T00:07:05.125Z,101141.98
2018-09-20T00:10:09.365Z,101154.66
2018-09-20T00:13:13.562Z,101142.53
2018-09-20T00:16:17.748Z,101134.00
2018-09-20T00:19:21.941Z,101135.08
2018-09-20T00:22:26.137Z,101141.16
2018-09-20T00:25:30.331Z,101138.37
2018-09-20T00:28:34.524Z,101134.52
2018-09-20T00:31:38.725Z,101149.94
2018-09-20T00:34:42.930Z,101131.20
2018-09-20T00:37:47.133Z,101130.09
2018-09-20T00:40:51.373Z,101137.78
2018-09-20T00:43:55.561Z,101135.04
2018-09-20T00:47:00.606Z,101128.42
2018-09-20T00:50:04.812Z,101127.86
2018-09-20T00:53:09.032Z,101136.66
2018-09-20T00:56:16.760Z,101135.31
2018-09-20T00:59:21.029Z,101136.69
2018-09-20T01:02:25.220Z,101143.59
2018-09-20T01:05:29.445Z,101133.69
2018-09-20T01:08:33.653Z,101139.73
2018-09-20T01:11:38.004Z,101145.80
2018-09-20T01:14:42.210Z,101144.16
2018-09-20T01:17:46.449Z,101141.97
2018-09-20T01:20:50.637Z,101144.45
2018-09-20T01:23:54.849Z,101139.77
2018-09-20T01:26:59.033Z,101140.04
2018-09-20T01:30:03.232Z,101145.55
2018-09-20T01:33:07.433Z,101144.48
2018-09-20T01:36:11.642Z,101146.66
2018-09-20T01:39:16.821Z,101151.91
2018-09-20T01:42:21.606Z,101142.53
2018-09-20T01:45:25.811Z,101146.13
2018-09-20T01:48:30.010Z,101142.52
2018-09-20T01:51:34.262Z,101141.45
2018-09-20T01:54:38.448Z,101138.69
2018-09-20T01:57:43.474Z,101141.98
2018-09-20T02:00:47.682Z,101133.99
2018-09-20T02:03:51.885Z,101141.42
2018-09-20T02:06:56.074Z,101136.48
2018-09-20T02:10:00.289Z,101139.50
2018-09-20T02:13:05.593Z,101138.13
2018-09-20T02:16:09.797Z,101137.56
2018-09-20T02:19:14.011Z,101134.80
2018-09-20T02:22:18.229Z,101130.40
2018-09-20T02:25:22.409Z,101130.12
2018-09-20T02:28:26.725Z,101127.38
2018-09-20T02:31:30.941Z,101122.70
2018-09-20T02:34:35.142Z,101122.44
2018-09-20T02:37:39.345Z,101137.28
2018-09-20T02:40:43.533Z,101134.00
2018-09-20T02:43:47.725Z,101134.00
2018-09-20T02:46:51.949Z,101133.16
2018-09-20T02:49:56.143Z,101133.70
2018-09-20T02:53:00.413Z,101139.48
2018-09-20T02:56:04.596Z,101138.37
2018-09-20T02:59:08.913Z,101144.99
2018-09-20T03:02:13.105Z,101140.59
2018-09-20T03:05:17.320Z,101141.41
2018-09-20T03:08:21.492Z,101147.72
2018-09-20T03:11:25.805Z,101148.56
2018-09-20T03:14:30.006Z,101146.64
2018-09-20T03:17:34.395Z,101149.94
2018-09-20T03:20:38.609Z,101149.64
2018-09-20T03:23:42.845Z,101157.91
2018-09-20T03:26:47.036Z,101148.83
2018-09-20T03:29:51.264Z,101148.27
2018-09-20T03:32:55.458Z,101147.73
2018-09-20T03:35:59.709Z,101152.13
2018-09-20T03:39:04.145Z,101144.14
2018-09-20T03:42:08.358Z,101147.70
2018-09-20T03:45:13.651Z,101143.03
2018-09-20T03:48:17.837Z,101135.01
2018-09-20T03:51:22.048Z,101139.41
2018-09-20T03:54:26.264Z,101139.98
2018-09-20T03:57:30.473Z,101130.88
2018-09-20T04:00:34.672Z,101130.05
2018-09-20T04:03:38.909Z,101146.03
2018-09-20T04:06:43.204Z,101134.45
2018-09-20T04:09:47.507Z,101136.93
2018-09-20T04:12:51.646Z,101133.88
2018-09-20T04:15:55.857Z,101139.92
2018-09-20T04:19:00.593Z,101135.53
2018-09-20T04:22:04.809Z,101134.69
2018-09-20T04:25:08.996Z,101136.88
2018-09-20T04:28:13.231Z,101130.56
2018-09-20T04:31:17.438Z,101144.87
2018-09-20T04:34:21.670Z,101138.79
2018-09-20T04:37:25.878Z,101140.70
2018-09-20T04:40:30.077Z,101141.24
2018-09-20T04:43:34.288Z,101147.86
2018-09-20T04:46:38.477Z,101138.76
2018-09-20T04:49:42.683Z,101150.58
2018-09-20T04:52:46.928Z,101147.80
2018-09-20T04:55:51.151Z,101150.84
2018-09-20T04:58:55.334Z,101152.99
2018-09-20T05:01:59.540Z,101147.45
2018-09-20T05:05:03.746Z,101150.73
2018-09-20T05:08:07.937Z,101139.20
2018-09-20T05:11:12.129Z,101140.80
2018-09-20T05:14:16.320Z,101142.67
2018-09-20T05:17:20.515Z,101148.75
2018-09-20T05:20:24.700Z,101143.48
2018-09-20T05:23:28.934Z,101139.88
2018-09-20T05:26:33.153Z,101136.56
2018-09-20T05:29:37.360Z,101146.49
2018-09-20T05:32:41.589Z,101153.33
2018-09-20T05:35:45.798Z,101151.69
2018-09-20T05:38:50.014Z,101149.78
2018-09-20T05:41:54.228Z,101151.42
2018-09-20T05:44:58.419Z,101152.80
2018-09-20T05:48:02.648Z,101148.14
2018-09-20T05:51:08.199Z,101146.50
2018-09-20T05:54:12.430Z,101152.00
2018-09-20T05:57:16.625Z,101153.11
2018-09-20T06:00:20.837Z,101143.75
2018-09-20T06:03:25.165Z,101151.50
2018-09-20T06:06:29.368Z,101142.41
2018-09-20T06:09:33.577Z,101149.59
2018-09-20T06:12:37.800Z,101145.16
2018-09-20T06:15:41.981Z,101147.64
2018-09-20T06:18:46.231Z,101152.31
2018-09-20T06:21:50.458Z,101138.85
2018-09-20T06:24:54.633Z,101145.16
2018-09-20T06:27:58.882Z,101153.19
2018-09-20T06:31:03.094Z,101159.23
2018-09-20T06:34:07.533Z,101160.06
2018-09-20T06:37:11.761Z,101159.23
2018-09-20T06:40:16.037Z,101151.81
2018-09-20T06:43:20.258Z,101157.35
2018-09-20T06:46:24.474Z,101157.66
2018-09-20T06:49:28.902Z,101160.98
2018-09-20T06:52:33.149Z,101164.03
2018-09-20T06:55:37.340Z,101161.55
2018-09-20T06:58:41.534Z,101163.77
2018-09-20T07:01:45.738Z,101169.01
2018-09-20T07:04:49.973Z,101173.98
2018-09-20T07:07:54.169Z,101176.19
2018-09-20T07:10:58.381Z,101169.28
2018-09-20T07:14:02.564Z,101168.47
2018-09-20T07:17:06.802Z,101159.37
2018-09-20T07:20:11.034Z,101159.95
2018-09-20T07:23:15.261Z,101166.59
2018-09-20T07:26:19.464Z,101170.19
2018-09-20T07:29:23.970Z,101167.40
2018-09-20T07:32:28.212Z,101177.34
2018-09-20T07:35:32.462Z,101175.42
2018-09-20T07:38:36.680Z,101169.91
2018-09-20T07:41:40.933Z,101174.05
2018-09-20T07:44:45.157Z,101173.20
2018-09-20T07:47:49.572Z,101178.41
2018-09-20T07:50:53.902Z,101181.63
2018-09-20T07:53:58.148Z,101191.75
2018-09-20T07:57:02.406Z,101191.41
2018-09-20T08:00:06.733Z,101191.62
2018-09-20T08:03:10.936Z,101200.31
2018-09-20T08:06:15.189Z,101197.19
2018-09-20T08:09:19.602Z,101192.73
2018-09-20T08:12:23.825Z,101197.61
2018-09-20T08:15:28.213Z,101202.84
2018-09-20T08:18:32.418Z,101202.80
2018-09-20T08:21:36.689Z,101209.97
2018-09-20T08:24:40.905Z,101210.19
2018-09-20T08:27:45.201Z,101218.15
2018-09-20T08:30:49.453Z,101221.69
2018-09-20T08:33:54.077Z,101224.38
2018-09-20T08:36:58.383Z,101226.03
2018-09-20T08:40:02.626Z,101228.77
2018-09-20T08:43:07.086Z,101232.56
2018-09-20T08:46:12.455Z,101228.89
2018-09-20T08:49:29.206Z,101212.91
2018-09-20T08:52:34.502Z,101215.66
2018-09-20T08:55:41.430Z,101224.77
2018-09-20T08:58:47.229Z,101212.91
2018-09-20T09:01:53.483Z,101210.44
2018-09-20T09:04:57.929Z,101214.56
2018-09-20T09:08:02.267Z,101199.34
2018-09-20T09:11:06.562Z,101203.20
2018-09-20T09:14:11.169Z,101208.11
2018-09-20T09:17:15.394Z,101209.48
2018-09-20T09:20:19.637Z,101212.81
2018-09-20T09:23:23.858Z,101212.28
2018-09-20T09:26:28.085Z,101203.22
2018-09-20T09:29:32.310Z,101207.41
2018-09-20T09:32:36.553Z,101208.45
2018-09-20T09:35:40.761Z,101200.83
2018-09-20T09:39:19.227Z,101202.86
2018-09-20T09:42:23.466Z,101202.38
2018-09-20T09:45:27.714Z,101188.39
2018-09-20T09:48:31.921Z,101192.52
2018-09-20T09:51:36.184Z,101191.44
2018-09-20T09:54:40.505Z,101186.74
2018-09-20T09:57:48.802Z,101191.14
2018-09-20T10:00:53.073Z,101193.31
2018-09-20T10:03:57.308Z,101196.03
2018-09-20T10:07:01.654Z,101193.80
2018-09-20T10:10:05.997Z,101188.05
2018-09-20T10:13:10.270Z,101194.09
2018-09-20T10:16:14.534Z,101186.41
2018-09-20T10:19:18.765Z,101182.56
2018-09-20T10:22:23.011Z,101177.66
2018-09-20T10:25:27.242Z,101177.45
2018-09-20T10:28:31.475Z,101171.17
2018-09-20T10:31:35.698Z,101178.20
2018-09-20T10:34:39.964Z,101164.19
2018-09-20T10:37:44.212Z,101173.02
2018-09-20T10:40:48.444Z,101173.64
2018-09-20T10:43:52.678Z,101162.37
2018-09-20T10:46:56.909Z,101157.77
2018-09-20T10:50:01.135Z,101151.20
2018-09-20T10:53:05.372Z,101141.11
2018-09-20T10:56:09.649Z,101138.46
2018-09-20T10:59:14.582Z,101141.55
2018-09-20T11:02:18.857Z,101138.25
2018-09-20T11:05:23.097Z,101134.96
2018-09-20T11:08:27.343Z,101128.11
2018-09-20T11:11:31.600Z,101134.47
2018-09-20T11:14:36.162Z,101129.30
2018-09-20T11:17:40.409Z,101124.39
2018-09-20T11:20:44.646Z,101134.92
2018-09-20T11:23:48.853Z,101134.39
2018-09-20T11:26:53.870Z,101133.28
2018-09-20T11:29:58.108Z,101134.95
2018-09-20T11:33:02.476Z,101134.11
2018-09-20T11:36:06.910Z,101140.73
2018-09-20T11:39:13.033Z,101139.34
2018-09-20T11:42:17.391Z,101137.16
2018-09-20T11:45:21.759Z,101133.28
2018-09-20T11:48:26.111Z,101132.19
2018-09-20T11:51:30.521Z,101130.26
2018-09-20T11:54:34.813Z,101133.55
2018-09-20T11:57:39.090Z,101133.57
2018-09-20T12:00:43.309Z,101130.80
2018-09-20T12:03:47.556Z,101127.46
2018-09-20T12:06:51.801Z,101134.94
2018-09-20T12:09:56.056Z,101127.79
2018-09-20T12:13:00.339Z,101121.41
2018-09-20T12:16:04.616Z,101125.02
2018-09-20T12:19:08.884Z,101135.75
2018-09-20T12:22:13.188Z,101124.72
2018-09-20T12:25:17.419Z,101133.02
2018-09-20T12:28:21.691Z,101146.81
2018-09-20T12:31:25.973Z,101142.13
2018-09-20T12:34:30.158Z,101140.17
2018-09-20T12:37:37.554Z,101144.33
2018-09-20T12:40:41.820Z,101123.05
2018-09-20T12:43:46.129Z,101134.39
2018-09-20T12:46:50.389Z,101134.38
2018-09-20T12:49:54.706Z,101135.21
2018-09-20T12:52:58.989Z,101135.48
2018-09-20T12:56:03.444Z,101129.95
2018-09-20T12:59:07.732Z,101120.58
2018-09-20T13:02:11.998Z,101128.33
2018-09-20T13:05:16.262Z,101115.61
2018-09-20T13:08:20.589Z,101128.59
2018-09-20T13:11:24.804Z,101110.92
2018-09-20T13:14:29.086Z,101103.42
2018-09-20T13:17:33.337Z,101097.34
2018-09-20T13:20:37.713Z,101085.73
2018-09-20T13:23:41.987Z,101076.84
2018-09-20T13:26:46.253Z,101074.84
2018-09-20T13:29:50.539Z,101078.65
2018-09-20T13:32:54.780Z,101075.31
2018-09-20T13:35:59.106Z,101066.17
2018-09-20T13:39:03.454Z,101065.94
2018-09-20T13:42:07.733Z,101063.95
2018-09-20T13:45:12.038Z,101065.06
2018-09-20T13:48:16.324Z,101069.17
2018-09-20T13:51:20.592Z,101058.98
2018-09-20T13:54:24.880Z,101060.94
2018-09-20T13:57:30.157Z,101054.30
2018-09-20T14:00:34.462Z,101064.28
2018-09-20T14:03:39.960Z,101053.83
2018-09-20T14:06:44.202Z,101063.27
2018-09-20T14:09:48.458Z,101055.80
2018-09-20T14:12:52.726Z,101047.52
2018-09-20T14:15:56.985Z,101057.72
2018-09-20T14:19:01.260Z,101048.80
2018-09-20T14:22:05.533Z,101045.50
2018-09-20T14:25:09.808Z,101057.87
2018-09-20T14:28:14.058Z,101054.55
2018-09-20T14:31:18.372Z,101055.13
2018-09-20T14:34:22.644Z,101047.66
2018-09-20T14:37:26.916Z,101041.05
2018-09-20T14:40:31.197Z,101048.20
2018-09-20T14:43:35.536Z,101044.92
2018-09-20T14:46:39.812Z,101041.59
2018-09-20T14:49:44.100Z,101035.20
2018-09-20T14:52:48.439Z,101038.83
2018-09-20T14:55:52.678Z,101033.36
2018-09-20T14:58:57.713Z,101035.28
2018-09-20T15:02:02.006Z,101037.26
2018-09-20T15:05:06.496Z,101038.13
2018-09-20T15:08:10.833Z,101039.03
2018-09-20T15:11:15.196Z,101044.63
2018-09-20T15:14:19.460Z,101038.84
2018-09-20T15:17:24.027Z,101046.55
2018-09-20T15:20:28.290Z,101040.20
2018-09-20T15:23:32.604Z,101035.48
2018-09-20T15:26:36.820Z,101041.84
2018-09-20T15:29:41.230Z,101041.87
2018-09-20T15:32:45.501Z,101049.31
2018-09-20T15:35:49.767Z,101040.21
2018-09-20T15:38:54.060Z,101046.85
2018-09-20T15:41:58.357Z,101047.70
2018-09-20T15:45:02.657Z,101042.72
2018-09-20T15:48:07.063Z,101031.69
2018-09-20T15:51:11.325Z,101044.34
2018-09-20T15:54:15.598Z,101035.20
2018-09-20T15:57:19.877Z,101043.48
2018-09-20T16:00:24.155Z,101041.03
2018-09-20T16:03:28.451Z,101023.65
2018-09-20T16:06:32.712Z,101017.89
2018-09-20T16:09:36.993Z,101025.08
2018-09-20T16:12:41.316Z,101029.20
2018-09-20T16:15:45.596Z,101026.19
2018-09-20T16:18:49.853Z,101022.62
2018-09-20T16:21:54.154Z,101022.88
2018-09-20T16:24:58.413Z,101014.88
2018-09-20T16:28:19.829Z,101009.92
2018-09-20T16:32:05.621Z,101013.78
2018-09-20T16:36:22.046Z,101014.08
2018-09-20T16:39:29.717Z,101013.00
2018-09-20T16:42:36.852Z,100997.27
2018-09-20T16:45:41.141Z,100989.84
2018-09-20T16:48:45.399Z,100991.23
2018-09-20T16:51:49.679Z,100986.27
2018-09-20T16:54:53.971Z,100983.27
2018-09-20T16:57:58.240Z,100981.06
2018-09-20T17:01:02.504Z,100980.53
2018-09-20T17:04:06.827Z,100987.95
2018-09-20T17:07:11.145Z,100994.86
2018-09-20T17:10:15.410Z,100991.55
2018-09-20T17:13:20.286Z,100984.95
2018-09-20T17:16:24.501Z,100990.48
2018-09-20T17:19:28.744Z,100981.92
2018-09-20T17:22:33.473Z,100981.94
2018-09-20T17:25:38.593Z,100974.50
2018-09-20T17:28:42.969Z,100964.29
2018-09-20T17:31:47.315Z,100962.09
2018-09-20T17:34:51.738Z,100952.72
2018-09-20T17:37:56.798Z,100952.73
2018-09-20T17:41:04.231Z,100957.16
2018-09-20T17:44:09.336Z,100960.69
2018-09-20T17:47:13.643Z,100948.30
2018-09-20T17:50:17.921Z,100945.01
2018-09-20T17:53:22.828Z,100937.84
2018-09-20T17:56:28.582Z,100931.51
2018-09-20T17:59:32.855Z,100925.70
2018-09-20T18:02:37.137Z,100928.75
2018-09-20T18:05:41.409Z,100938.37
2018-09-20T18:08:45.724Z,100946.09
2018-09-20T18:11:49.984Z,100941.69
2018-09-20T18:14:54.309Z,100937.55
2018-09-20T18:17:58.704Z,100934.53
2018-09-20T18:21:02.914Z,100944.98
2018-09-20T18:24:07.180Z,100933.98
2018-09-20T18:27:11.530Z,100930.67
2018-09-20T18:30:15.831Z,100928.20
2018-09-20T18:33:20.115Z,100923.51
2018-09-20T18:36:24.374Z,100919.39
2018-09-20T18:39:28.694Z,100913.58
2018-09-20T18:42:33.042Z,100916.64
2018-09-20T18:45:37.287Z,100911.66
2018-09-20T18:48:41.553Z,100911.11
2018-09-20T18:51:45.841Z,100911.67
2018-09-20T18:54:50.098Z,100919.10
2018-09-20T18:57:54.366Z,100909.44
2018-09-20T19:00:58.615Z,100910.26
2018-09-20T19:04:02.926Z,100909.73
2018-09-20T19:07:07.190Z,100913.56
2018-09-20T19:10:11.475Z,100904.20
2018-09-20T19:13:16.340Z,100906.12
2018-09-20T19:16:20.624Z,100899.81
2018-09-20T19:19:25.540Z,100905.84
2018-09-20T19:22:29.801Z,100897.61
2018-09-20T19:25:34.082Z,100894.27
2018-09-20T19:28:38.332Z,100887.94
2018-09-20T19:31:42.633Z,100881.30
2018-09-20T19:34:46.904Z,100879.37
2018-09-20T19:37:51.157Z,100870.56
2018-09-20T19:40:55.436Z,100859.00
2018-09-20T19:43:59.717Z,100852.11
2018-09-20T19:47:04.001Z,100854.30
2018-09-20T19:50:08.451Z,100855.66
2018-09-20T19:53:12.797Z,100847.12
2018-09-20T19:56:17.079Z,100835.28
2018-09-20T19:59:21.337Z,100838.31
2018-09-20T20:02:27.202Z,100829.50
2018-09-20T20:05:31.860Z,100830.86
2018-09-20T20:08:36.132Z,100827.28
2018-09-20T20:11:41.220Z,100823.97
2018-09-20T20:14:45.502Z,100817.91
2018-09-20T20:17:49.736Z,100811.58
2018-09-20T20:20:54.009Z,100801.39
2018-09-20T20:23:58.284Z,100792.58
2018-09-20T20:27:02.541Z,100791.22
2018-09-20T20:30:07.099Z,100784.61
2018-09-20T20:33:11.360Z,100789.00
2018-09-20T20:36:15.718Z,100776.34
2018-09-20T20:39:19.956Z,100789.52
2018-09-20T20:42:24.232Z,100785.94
2018-09-20T20:45:28.492Z,100779.87
2018-09-20T20:48:32.773Z,100772.69
2018-09-20T20:51:36.999Z,100771.02
2018-09-20T20:54:41.260Z,100766.87
2018-09-20T20:57:45.501Z,100766.33
2018-09-20T21:00:49.759Z,100758.36
2018-09-20T21:03:54.008Z,100750.39
2018-09-20T21:06:58.287Z,100743.22
2018-09-20T21:10:02.569Z,100733.08
2018-09-20T21:13:06.857Z,100722.89
2018-09-20T21:16:11.124Z,100724.84
2018-09-20T21:19:15.397Z,100717.97
2018-09-20T21:22:19.667Z,100709.43
2018-09-20T21:25:23.933Z,100703.67
2018-09-20T21:28:28.171Z,100694.33
2018-09-20T21:31:32.409Z,100687.19
2018-09-20T21:34:36.663Z,100686.06
2018-09-20T21:37:41.118Z,100681.41
2018-09-20T21:40:45.396Z,100678.93
2018-09-20T21:43:49.638Z,100664.91
2018-09-20T21:46:53.935Z,100664.91
2018-09-20T21:49:58.177Z,100659.69
2018-09-20T21:53:02.471Z,100656.91
2018-09-20T21:56:06.853Z,100651.16
2018-09-20T21:59:11.110Z,100649.48
2018-09-20T22:02:19.440Z,100648.66
2018-09-20T22:05:23.701Z,100641.52
2018-09-20T22:08:27.973Z,100640.69
2018-09-20T22:11:32.237Z,100631.89
2018-09-20T22:14:36.509Z,100628.31
2018-09-20T22:17:40.763Z,100610.17
2018-09-20T22:20:45.033Z,100616.20
2018-09-20T22:23:49.300Z,100599.20
2018-09-20T22:26:53.572Z,100598.37
2018-09-20T22:29:58.208Z,100590.97
2018-09-20T22:33:02.493Z,100584.38
2018-09-20T22:36:06.738Z,100582.70
2018-09-20T22:39:11.860Z,100575.58
2018-09-20T22:42:16.141Z,100563.50
2018-09-20T22:45:20.411Z,100565.98
2018-09-20T22:48:24.667Z,100559.69
2018-09-20T22:51:28.960Z,100548.72
2018-09-20T22:54:33.228Z,100542.41
2018-09-20T22:57:37.518Z,100542.98
2018-09-20T23:00:41.773Z,100539.43
2018-09-20T23:03:46.536Z,100534.75
2018-09-20T23:06:50.971Z,100535.87
2018-09-20T23:09:55.233Z,100524.31
2018-09-20T23:12:59.498Z,100524.03
2018-09-20T23:16:03.755Z,100518.54
2018-09-20T23:19:08.023Z,100511.13
2018-09-20T23:22:12.264Z,100505.64
2018-09-20T23:25:16.511Z,100498.23
2018-09-20T23:28:20.763Z,100496.86
2018-09-20T23:31:24.996Z,100485.33
2018-09-20T23:34:29.269Z,100475.16
2018-09-20T23:37:33.553Z,100477.09
2018-09-20T23:40:37.796Z,100476.53
2018-09-20T23:43:42.069Z,100474.34
2018-09-20T23:46:46.335Z,100461.70
2018-09-20T23:49:50.623Z,100454.30
2018-09-20T23:52:54.855Z,100447.44
2018-09-20T23:55:59.130Z,100444.39
2018-09-20T23:59:03.380Z,100443.03
